sensor_id;sensor_type;location;lat;lon;timestamp;temperature;humidity
6556;DHT22;3311;48.32423000;14.29074500;2023-04-08T00:01:26;12.70;42.30
6556;DHT22;3311;48.32423000;14.29074500;2023-04-08T00:03:53;12.70;42.00
6556;DHT22;3311;48.32423000;14.29074500;2023-04-08T00:06:21;12.80;41.90
6556;DHT22;3311;48.32423000;14.29074500;2023-04-08T00:08:49;12.80;41.60
6556;DHT22;3311;48.32423000;14.29074500;2023-04-08T00:11:16;12.80;42.30
6556;DHT22;3311;48.32423000;14.29074500;2023-04-08T00:13:44;12.80;42.40
6556;DHT22;3311;48.32423000;14.29074500;2023-04-08T00:16:11;12.60;43.10
6556;DHT22;3311;48.32423000;14.29074500;2023-04-08T00:18:39;12.60;43.50
6556;DHT22;3311;48.32423000;14.29074500;2023-04-08T00:21:06;12.50;43.80
6556;DHT22;3311;48.32423000;14.29074500;2023-04-08T00:23:33;12.50;44.10
6556;DHT22;3311;48.32423000;14.29074500;2023-04-08T00:26:02;12.50;43.80
6556;DHT22;3311;48.32423000;14.29074500;2023-04-08T00:28:30;12.50;43.70
6556;DHT22;3311;48.32423000;14.29074500;2023-04-08T00:30:58;12.50;43.90
6556;DHT22;3311;48.32423000;14.29074500;2023-04-08T00:33:25;12.60;43.80
6556;DHT22;3311;48.32423000;14.29074500;2023-04-08T00:35:52;12.50;44.50
6556;DHT22;3311;48.32423000;14.29074500;2023-04-08T00:38:19;12.50;44.40
6556;DHT22;3311;48.32423000;14.29074500;2023-04-08T00:40:47;12.40;44.40
6556;DHT22;3311;48.32423000;14.29074500;2023-04-08T00:43:15;12.40;44.60
6556;DHT22;3311;48.32423000;14.29074500;2023-04-08T00:45:45;12.40;44.80
6556;DHT22;3311;48.32423000;14.29074500;2023-04-08T00:48:12;12.50;44.90
6556;DHT22;3311;48.32423000;14.29074500;2023-04-08T00:50:42;12.40;45.40
6556;DHT22;3311;48.32423000;14.29074500;2023-04-08T00:53:13;12.40;45.30
6556;DHT22;3311;48.32423000;14.29074500;2023-04-08T00:55:42;12.40;44.90
6556;DHT22;3311;48.32423000;14.29074500;2023-04-08T00:58:09;12.50;43.90
6556;DHT22;3311;48.32423000;14.29074500;2023-04-08T01:00:44;12.50;43.90
6556;DHT22;3311;48.32423000;14.29074500;2023-04-08T01:03:16;12.50;44.00
6556;DHT22;3311;48.32423000;14.29074500;2023-04-08T01:05:53;12.50;44.00
6556;DHT22;3311;48.32423000;14.29074500;2023-04-08T01:08:25;12.60;43.50
6556;DHT22;3311;48.32423000;14.29074500;2023-04-08T01:10:57;12.60;43.30
6556;DHT22;3311;48.32423000;14.29074500;2023-04-08T01:13:26;12.70;43.70
6556;DHT22;3311;48.32423000;14.29074500;2023-04-08T01:15:57;12.70;43.80
6556;DHT22;3311;48.32423000;14.29074500;2023-04-08T01:18:25;12.70;43.30
6556;DHT22;3311;48.32423000;14.29074500;2023-04-08T01:20:53;12.60;43.60
6556;DHT22;3311;48.32423000;14.29074500;2023-04-08T01:23:28;12.50;44.90
6556;DHT22;3311;48.32423000;14.29074500;2023-04-08T01:25:58;12.50;44.70
6556;DHT22;3311;48.32423000;14.29074500;2023-04-08T01:28:28;12.40;45.30
6556;DHT22;3311;48.32423000;14.29074500;2023-04-08T01:30:58;12.40;45.40
6556;DHT22;3311;48.32423000;14.29074500;2023-04-08T01:33:27;12.30;45.50
6556;DHT22;3311;48.32423000;14.29074500;2023-04-08T01:35:56;12.30;45.40
6556;DHT22;3311;48.32423000;14.29074500;2023-04-08T01:38:25;12.30;45.50
6556;DHT22;3311;48.32423000;14.29074500;2023-04-08T01:40:54;12.30;45.30
6556;DHT22;3311;48.32423000;14.29074500;2023-04-08T01:43:25;12.30;44.90
6556;DHT22;3311;48.32423000;14.29074500;2023-04-08T01:45:54;12.40;45.00
6556;DHT22;3311;48.32423000;14.29074500;2023-04-08T01:48:23;12.40;44.90
6556;DHT22;3311;48.32423000;14.29074500;2023-04-08T01:50:51;12.40;44.60
6556;DHT22;3311;48.32423000;14.29074500;2023-04-08T01:53:19;12.40;44.60
6556;DHT22;3311;48.32423000;14.29074500;2023-04-08T01:55:51;12.40;44.80
6556;DHT22;3311;48.32423000;14.29074500;2023-04-08T01:58:21;12.40;45.20
6556;DHT22;3311;48.32423000;14.29074500;2023-04-08T02:00:51;12.40;44.90
6556;DHT22;3311;48.32423000;14.29074500;2023-04-08T02:03:21;12.40;45.00
6556;DHT22;3311;48.32423000;14.29074500;2023-04-08T02:05:49;12.40;44.80
6556;DHT22;3311;48.32423000;14.29074500;2023-04-08T02:08:16;12.40;45.60
6556;DHT22;3311;48.32423000;14.29074500;2023-04-08T02:10:43;12.40;45.60
6556;DHT22;3311;48.32423000;14.29074500;2023-04-08T02:13:11;12.30;45.60
6556;DHT22;3311;48.32423000;14.29074500;2023-04-08T02:15:41;12.30;46.20
6556;DHT22;3311;48.32423000;14.29074500;2023-04-08T02:18:15;12.20;46.50
6556;DHT22;3311;48.32423000;14.29074500;2023-04-08T02:20:55;12.30;46.50
6556;DHT22;3311;48.32423000;14.29074500;2023-04-08T02:23:25;12.20;46.50
6556;DHT22;3311;48.32423000;14.29074500;2023-04-08T02:25:56;12.30;46.50
6556;DHT22;3311;48.32423000;14.29074500;2023-04-08T02:28:25;12.20;46.60
6556;DHT22;3311;48.32423000;14.29074500;2023-04-08T02:30:56;12.20;47.00
6556;DHT22;3311;48.32423000;14.29074500;2023-04-08T02:33:27;12.10;47.20
6556;DHT22;3311;48.32423000;14.29074500;2023-04-08T02:35:55;12.30;46.30
6556;DHT22;3311;48.32423000;14.29074500;2023-04-08T02:38:23;12.30;46.10
6556;DHT22;3311;48.32423000;14.29074500;2023-04-08T02:40:54;12.30;46.70
6556;DHT22;3311;48.32423000;14.29074500;2023-04-08T02:43:22;12.30;46.60
6556;DHT22;3311;48.32423000;14.29074500;2023-04-08T02:45:57;12.30;45.80
6556;DHT22;3311;48.32423000;14.29074500;2023-04-08T02:48:26;12.40;45.50
6556;DHT22;3311;48.32423000;14.29074500;2023-04-08T02:50:54;12.40;45.40
6556;DHT22;3311;48.32423000;14.29074500;2023-04-08T02:53:23;12.40;45.40
6556;DHT22;3311;48.32423000;14.29074500;2023-04-08T02:55:50;12.40;45.90
6556;DHT22;3311;48.32423000;14.29074500;2023-04-08T02:58:17;12.40;45.90
6556;DHT22;3311;48.32423000;14.29074500;2023-04-08T03:00:44;12.30;46.20
6556;DHT22;3311;48.32423000;14.29074500;2023-04-08T03:03:12;12.30;46.30
6556;DHT22;3311;48.32423000;14.29074500;2023-04-08T03:05:40;12.30;46.10
6556;DHT22;3311;48.32423000;14.29074500;2023-04-08T03:08:08;12.40;46.30
6556;DHT22;3311;48.32423000;14.29074500;2023-04-08T03:10:35;12.30;46.90
6556;DHT22;3311;48.32423000;14.29074500;2023-04-08T03:13:02;12.30;47.00
6556;DHT22;3311;48.32423000;14.29074500;2023-04-08T03:15:29;12.30;46.70
6556;DHT22;3311;48.32423000;14.29074500;2023-04-08T03:17:57;12.30;46.30
6556;DHT22;3311;48.32423000;14.29074500;2023-04-08T03:20:24;12.30;46.10
6556;DHT22;3311;48.32423000;14.29074500;2023-04-08T03:22:53;12.30;46.30
6556;DHT22;3311;48.32423000;14.29074500;2023-04-08T03:25:20;12.30;46.40
6556;DHT22;3311;48.32423000;14.29074500;2023-04-08T03:27:47;12.40;46.50
6556;DHT22;3311;48.32423000;14.29074500;2023-04-08T03:30:16;12.30;46.30
6556;DHT22;3311;48.32423000;14.29074500;2023-04-08T03:32:43;12.30;46.80
6556;DHT22;3311;48.32423000;14.29074500;2023-04-08T03:35:10;12.20;47.30
6556;DHT22;3311;48.32423000;14.29074500;2023-04-08T03:37:38;12.30;46.90
6556;DHT22;3311;48.32423000;14.29074500;2023-04-08T03:40:09;12.30;47.50
6556;DHT22;3311;48.32423000;14.29074500;2023-04-08T03:42:36;12.30;48.00
6556;DHT22;3311;48.32423000;14.29074500;2023-04-08T03:45:05;12.20;48.50
6556;DHT22;3311;48.32423000;14.29074500;2023-04-08T03:47:33;12.10;49.20
6556;DHT22;3311;48.32423000;14.29074500;2023-04-08T03:50:00;12.20;49.30
6556;DHT22;3311;48.32423000;14.29074500;2023-04-08T03:52:28;12.20;49.40
6556;DHT22;3311;48.32423000;14.29074500;2023-04-08T03:54:55;12.10;50.10
6556;DHT22;3311;48.32423000;14.29074500;2023-04-08T03:57:24;12.10;50.00
6556;DHT22;3311;48.32423000;14.29074500;2023-04-08T03:59:51;12.10;50.50
6556;DHT22;3311;48.32423000;14.29074500;2023-04-08T04:02:18;12.10;51.00
6556;DHT22;3311;48.32423000;14.29074500;2023-04-08T04:04:46;12.10;51.40
6556;DHT22;3311;48.32423000;14.29074500;2023-04-08T04:07:13;12.00;51.80
6556;DHT22;3311;48.32423000;14.29074500;2023-04-08T04:09:41;12.00;51.90
6556;DHT22;3311;48.32423000;14.29074500;2023-04-08T04:12:08;12.00;52.60
6556;DHT22;3311;48.32423000;14.29074500;2023-04-08T04:14:37;11.90;53.30
6556;DHT22;3311;48.32423000;14.29074500;2023-04-08T04:17:04;11.90;53.30
6556;DHT22;3311;48.32423000;14.29074500;2023-04-08T04:19:31;11.90;53.50
6556;DHT22;3311;48.32423000;14.29074500;2023-04-08T04:21:59;11.90;54.30
6556;DHT22;3311;48.32423000;14.29074500;2023-04-08T04:24:26;11.90;53.90
6556;DHT22;3311;48.32423000;14.29074500;2023-04-08T04:26:53;11.90;53.80
6556;DHT22;3311;48.32423000;14.29074500;2023-04-08T04:29:21;11.90;53.70
6556;DHT22;3311;48.32423000;14.29074500;2023-04-08T04:31:50;11.90;53.60
6556;DHT22;3311;48.32423000;14.29074500;2023-04-08T04:34:17;11.90;53.80
6556;DHT22;3311;48.32423000;14.29074500;2023-04-08T04:36:44;11.90;53.80
6556;DHT22;3311;48.32423000;14.29074500;2023-04-08T04:39:12;11.80;54.40
6556;DHT22;3311;48.32423000;14.29074500;2023-04-08T04:41:39;11.80;54.70
6556;DHT22;3311;48.32423000;14.29074500;2023-04-08T04:44:06;11.70;55.10
6556;DHT22;3311;48.32423000;14.29074500;2023-04-08T04:46:33;11.70;55.30
6556;DHT22;3311;48.32423000;14.29074500;2023-04-08T04:49:02;11.70;55.50
6556;DHT22;3311;48.32423000;14.29074500;2023-04-08T04:51:30;11.90;54.90
6556;DHT22;3311;48.32423000;14.29074500;2023-04-08T04:53:58;11.80;55.40
6556;DHT22;3311;48.32423000;14.29074500;2023-04-08T04:56:25;11.70;55.70
6556;DHT22;3311;48.32423000;14.29074500;2023-04-08T04:58:53;11.80;55.40
6556;DHT22;3311;48.32423000;14.29074500;2023-04-08T05:01:21;11.80;55.20
6556;DHT22;3311;48.32423000;14.29074500;2023-04-08T05:03:48;11.80;54.90
6556;DHT22;3311;48.32423000;14.29074500;2023-04-08T05:06:17;11.70;55.10
6556;DHT22;3311;48.32423000;14.29074500;2023-04-08T05:08:44;11.70;55.30
6556;DHT22;3311;48.32423000;14.29074500;2023-04-08T05:11:11;11.80;55.00
6556;DHT22;3311;48.32423000;14.29074500;2023-04-08T05:13:38;11.90;54.70
6556;DHT22;3311;48.32423000;14.29074500;2023-04-08T05:16:06;12.10;54.10
6556;DHT22;3311;48.32423000;14.29074500;2023-04-08T05:18:33;12.10;53.70
6556;DHT22;3311;48.32423000;14.29074500;2023-04-08T05:21:00;12.10;53.80
6556;DHT22;3311;48.32423000;14.29074500;2023-04-08T05:23:29;12.20;53.80
6556;DHT22;3311;48.32423000;14.29074500;2023-04-08T05:25:56;12.20;53.80
6556;DHT22;3311;48.32423000;14.29074500;2023-04-08T05:28:24;12.20;53.60
6556;DHT22;3311;48.32423000;14.29074500;2023-04-08T05:30:51;12.30;54.10
6556;DHT22;3311;48.32423000;14.29074500;2023-04-08T05:33:19;12.20;53.30
6556;DHT22;3311;48.32423000;14.29074500;2023-04-08T05:35:46;12.20;53.20
6556;DHT22;3311;48.32423000;14.29074500;2023-04-08T05:38:13;12.10;53.60
6556;DHT22;3311;48.32423000;14.29074500;2023-04-08T05:40:42;12.00;54.30
6556;DHT22;3311;48.32423000;14.29074500;2023-04-08T05:43:09;12.00;54.30
6556;DHT22;3311;48.32423000;14.29074500;2023-04-08T05:45:36;12.00;53.80
6556;DHT22;3311;48.32423000;14.29074500;2023-04-08T05:48:03;12.00;54.30
6556;DHT22;3311;48.32423000;14.29074500;2023-04-08T05:50:31;12.00;54.10
6556;DHT22;3311;48.32423000;14.29074500;2023-04-08T05:52:58;12.30;53.70
6556;DHT22;3311;48.32423000;14.29074500;2023-04-08T05:55:25;12.10;53.80
6556;DHT22;3311;48.32423000;14.29074500;2023-04-08T05:57:54;12.10;54.00
6556;DHT22;3311;48.32423000;14.29074500;2023-04-08T06:00:21;12.00;54.20
6556;DHT22;3311;48.32423000;14.29074500;2023-04-08T06:02:48;11.90;54.60
6556;DHT22;3311;48.32423000;14.29074500;2023-04-08T06:05:16;11.90;54.60
6556;DHT22;3311;48.32423000;14.29074500;2023-04-08T06:07:44;11.90;54.30
6556;DHT22;3311;48.32423000;14.29074500;2023-04-08T06:10:11;11.90;54.40
6556;DHT22;3311;48.32423000;14.29074500;2023-04-08T06:12:38;11.90;54.60
6556;DHT22;3311;48.32423000;14.29074500;2023-04-08T06:15:08;11.90;54.80
6556;DHT22;3311;48.32423000;14.29074500;2023-04-08T06:17:36;11.80;54.90
6556;DHT22;3311;48.32423000;14.29074500;2023-04-08T06:20:04;11.90;54.80
6556;DHT22;3311;48.32423000;14.29074500;2023-04-08T06:22:32;11.90;54.90
6556;DHT22;3311;48.32423000;14.29074500;2023-04-08T06:24:59;11.80;55.10
6556;DHT22;3311;48.32423000;14.29074500;2023-04-08T06:27:26;11.70;55.30
6556;DHT22;3311;48.32423000;14.29074500;2023-04-08T06:29:54;11.70;55.50
6556;DHT22;3311;48.32423000;14.29074500;2023-04-08T06:32:22;11.60;55.80
6556;DHT22;3311;48.32423000;14.29074500;2023-04-08T06:34:50;11.60;55.70
6556;DHT22;3311;48.32423000;14.29074500;2023-04-08T06:37:17;11.60;55.70
6556;DHT22;3311;48.32423000;14.29074500;2023-04-08T06:39:44;11.60;55.50
6556;DHT22;3311;48.32423000;14.29074500;2023-04-08T06:42:11;11.60;55.40
6556;DHT22;3311;48.32423000;14.29074500;2023-04-08T06:44:38;11.70;55.50
6556;DHT22;3311;48.32423000;14.29074500;2023-04-08T06:47:05;11.80;55.90
6556;DHT22;3311;48.32423000;14.29074500;2023-04-08T06:49:34;11.70;55.60
6556;DHT22;3311;48.32423000;14.29074500;2023-04-08T06:52:02;11.70;55.80
6556;DHT22;3311;48.32423000;14.29074500;2023-04-08T06:54:29;11.60;56.20
6556;DHT22;3311;48.32423000;14.29074500;2023-04-08T06:56:56;11.70;55.80
6556;DHT22;3311;48.32423000;14.29074500;2023-04-08T06:59:23;11.70;55.90
6556;DHT22;3311;48.32423000;14.29074500;2023-04-08T07:01:51;11.70;55.80
6556;DHT22;3311;48.32423000;14.29074500;2023-04-08T07:04:18;11.60;56.20
6556;DHT22;3311;48.32423000;14.29074500;2023-04-08T07:06:47;11.50;57.00
6556;DHT22;3311;48.32423000;14.29074500;2023-04-08T07:09:14;11.50;57.50
6556;DHT22;3311;48.32423000;14.29074500;2023-04-08T07:11:41;11.50;57.70
6556;DHT22;3311;48.32423000;14.29074500;2023-04-08T07:14:08;11.50;57.60
6556;DHT22;3311;48.32423000;14.29074500;2023-04-08T07:16:36;11.60;56.90
6556;DHT22;3311;48.32423000;14.29074500;2023-04-08T07:19:03;11.60;56.70
6556;DHT22;3311;48.32423000;14.29074500;2023-04-08T07:21:30;11.70;56.60
6556;DHT22;3311;48.32423000;14.29074500;2023-04-08T07:23:59;11.60;56.60
6556;DHT22;3311;48.32423000;14.29074500;2023-04-08T07:26:26;11.60;57.10
6556;DHT22;3311;48.32423000;14.29074500;2023-04-08T07:28:54;11.40;57.50
6556;DHT22;3311;48.32423000;14.29074500;2023-04-08T07:31:21;11.50;57.40
6556;DHT22;3311;48.32423000;14.29074500;2023-04-08T07:33:48;11.60;57.00
6556;DHT22;3311;48.32423000;14.29074500;2023-04-08T07:36:15;11.70;56.40
6556;DHT22;3311;48.32423000;14.29074500;2023-04-08T07:38:43;11.70;56.50
6556;DHT22;3311;48.32423000;14.29074500;2023-04-08T07:41:11;11.50;56.90
6556;DHT22;3311;48.32423000;14.29074500;2023-04-08T07:43:39;11.60;56.50
6556;DHT22;3311;48.32423000;14.29074500;2023-04-08T07:46:06;11.60;57.00
6556;DHT22;3311;48.32423000;14.29074500;2023-04-08T07:48:34;11.60;57.20
6556;DHT22;3311;48.32423000;14.29074500;2023-04-08T07:51:05;11.60;57.30
6556;DHT22;3311;48.32423000;14.29074500;2023-04-08T07:53:33;11.70;57.20
6556;DHT22;3311;48.32423000;14.29074500;2023-04-08T07:56:01;11.70;57.20
6556;DHT22;3311;48.32423000;14.29074500;2023-04-08T07:58:30;11.70;57.10
6556;DHT22;3311;48.32423000;14.29074500;2023-04-08T08:00:58;11.70;57.20
6556;DHT22;3311;48.32423000;14.29074500;2023-04-08T08:03:25;11.80;57.10
6556;DHT22;3311;48.32423000;14.29074500;2023-04-08T08:05:53;11.90;57.10
6556;DHT22;3311;48.32423000;14.29074500;2023-04-08T08:08:20;11.90;56.80
6556;DHT22;3311;48.32423000;14.29074500;2023-04-08T08:10:48;12.00;56.80
6556;DHT22;3311;48.32423000;14.29074500;2023-04-08T08:13:15;12.00;57.80
6556;DHT22;3311;48.32423000;14.29074500;2023-04-08T08:15:51;12.10;57.20
6556;DHT22;3311;48.32423000;14.29074500;2023-04-08T08:18:19;12.20;56.70
6556;DHT22;3311;48.32423000;14.29074500;2023-04-08T08:20:47;12.20;56.50
6556;DHT22;3311;48.32423000;14.29074500;2023-04-08T08:23:14;12.10;56.30
6556;DHT22;3311;48.32423000;14.29074500;2023-04-08T08:25:41;12.10;57.00
6556;DHT22;3311;48.32423000;14.29074500;2023-04-08T08:28:09;12.00;57.30
6556;DHT22;3311;48.32423000;14.29074500;2023-04-08T08:30:36;12.00;57.10
6556;DHT22;3311;48.32423000;14.29074500;2023-04-08T08:33:05;12.00;57.40
6556;DHT22;3311;48.32423000;14.29074500;2023-04-08T08:35:32;12.00;57.10
6556;DHT22;3311;48.32423000;14.29074500;2023-04-08T08:38:00;12.00;57.30
6556;DHT22;3311;48.32423000;14.29074500;2023-04-08T08:40:27;11.90;57.50
6556;DHT22;3311;48.32423000;14.29074500;2023-04-08T08:42:55;11.90;57.60
6556;DHT22;3311;48.32423000;14.29074500;2023-04-08T08:45:23;11.90;57.80
6556;DHT22;3311;48.32423000;14.29074500;2023-04-08T08:47:52;12.00;57.50
6556;DHT22;3311;48.32423000;14.29074500;2023-04-08T08:50:22;12.10;57.70
6556;DHT22;3311;48.32423000;14.29074500;2023-04-08T08:52:49;12.00;57.90
6556;DHT22;3311;48.32423000;14.29074500;2023-04-08T08:55:18;12.00;57.70
6556;DHT22;3311;48.32423000;14.29074500;2023-04-08T08:57:45;12.20;57.30
6556;DHT22;3311;48.32423000;14.29074500;2023-04-08T09:00:15;12.10;57.50
6556;DHT22;3311;48.32423000;14.29074500;2023-04-08T09:02:43;12.30;57.20
6556;DHT22;3311;48.32423000;14.29074500;2023-04-08T09:05:10;12.20;57.00
6556;DHT22;3311;48.32423000;14.29074500;2023-04-08T09:07:39;12.20;57.20
6556;DHT22;3311;48.32423000;14.29074500;2023-04-08T09:10:07;12.30;56.90
6556;DHT22;3311;48.32423000;14.29074500;2023-04-08T09:12:53;12.40;56.90
6556;DHT22;3311;48.32423000;14.29074500;2023-04-08T09:15:21;12.30;56.90
6556;DHT22;3311;48.32423000;14.29074500;2023-04-08T09:17:48;12.20;57.40
6556;DHT22;3311;48.32423000;14.29074500;2023-04-08T09:20:15;12.20;57.70
6556;DHT22;3311;48.32423000;14.29074500;2023-04-08T09:22:58;12.30;57.50
6556;DHT22;3311;48.32423000;14.29074500;2023-04-08T09:25:26;12.30;57.40
6556;DHT22;3311;48.32423000;14.29074500;2023-04-08T09:27:54;12.30;57.40
6556;DHT22;3311;48.32423000;14.29074500;2023-04-08T09:30:23;12.30;57.20
6556;DHT22;3311;48.32423000;14.29074500;2023-04-08T09:32:52;12.40;56.90
6556;DHT22;3311;48.32423000;14.29074500;2023-04-08T09:35:20;12.50;57.00
6556;DHT22;3311;48.32423000;14.29074500;2023-04-08T09:37:49;12.50;57.10
6556;DHT22;3311;48.32423000;14.29074500;2023-04-08T09:40:17;12.50;56.90
6556;DHT22;3311;48.32423000;14.29074500;2023-04-08T09:42:46;10.80;55.40
6556;DHT22;3311;48.32423000;14.29074500;2023-04-08T09:45:16;12.60;57.00
6556;DHT22;3311;48.32423000;14.29074500;2023-04-08T09:47:54;12.60;57.20
6556;DHT22;3311;48.32423000;14.29074500;2023-04-08T09:50:26;12.60;57.00
6556;DHT22;3311;48.32423000;14.29074500;2023-04-08T09:53:00;12.50;57.20
6556;DHT22;3311;48.32423000;14.29074500;2023-04-08T09:55:30;12.60;57.10
6556;DHT22;3311;48.32423000;14.29074500;2023-04-08T09:58:03;12.60;57.30
6556;DHT22;3311;48.32423000;14.29074500;2023-04-08T10:00:37;12.60;57.20
6556;DHT22;3311;48.32423000;14.29074500;2023-04-08T10:03:09;12.50;57.10
6556;DHT22;3311;48.32423000;14.29074500;2023-04-08T10:05:41;12.50;57.40
6556;DHT22;3311;48.32423000;14.29074500;2023-04-08T10:08:10;12.50;57.30
6556;DHT22;3311;48.32423000;14.29074500;2023-04-08T10:10:39;12.40;57.40
6556;DHT22;3311;48.32423000;14.29074500;2023-04-08T10:13:08;12.40;57.60
6556;DHT22;3311;48.32423000;14.29074500;2023-04-08T10:15:37;12.50;57.50
6556;DHT22;3311;48.32423000;14.29074500;2023-04-08T10:18:29;12.40;57.30
6556;DHT22;3311;48.32423000;14.29074500;2023-04-08T10:20:57;12.40;57.50
6556;DHT22;3311;48.32423000;14.29074500;2023-04-08T10:23:52;12.50;57.40
6556;DHT22;3311;48.32423000;14.29074500;2023-04-08T10:26:34;12.50;57.40
6556;DHT22;3311;48.32423000;14.29074500;2023-04-08T10:32:16;12.60;57.50
6556;DHT22;3311;48.32423000;14.29074500;2023-04-08T10:34:53;12.60;57.30
6556;DHT22;3311;48.32423000;14.29074500;2023-04-08T10:37:21;12.60;57.50
6556;DHT22;3311;48.32423000;14.29074500;2023-04-08T10:39:50;12.70;57.50
6556;DHT22;3311;48.32423000;14.29074500;2023-04-08T10:42:27;12.80;56.90
6556;DHT22;3311;48.32423000;14.29074500;2023-04-08T10:45:00;12.80;56.90
6556;DHT22;3311;48.32423000;14.29074500;2023-04-08T10:47:28;12.80;57.10
6556;DHT22;3311;48.32423000;14.29074500;2023-04-08T10:49:57;12.90;57.40
6556;DHT22;3311;48.32423000;14.29074500;2023-04-08T10:52:24;12.90;56.80
6556;DHT22;3311;48.32423000;14.29074500;2023-04-08T10:54:53;13.00;56.40
6556;DHT22;3311;48.32423000;14.29074500;2023-04-08T10:57:24;13.00;56.30
6556;DHT22;3311;48.32423000;14.29074500;2023-04-08T10:59:53;13.00;56.60
6556;DHT22;3311;48.32423000;14.29074500;2023-04-08T11:02:21;13.10;56.40
6556;DHT22;3311;48.32423000;14.29074500;2023-04-08T11:04:48;13.10;56.30
6556;DHT22;3311;48.32423000;14.29074500;2023-04-08T11:07:15;13.20;56.00
6556;DHT22;3311;48.32423000;14.29074500;2023-04-08T11:09:48;13.10;55.90
6556;DHT22;3311;48.32423000;14.29074500;2023-04-08T11:12:15;13.10;55.80
6556;DHT22;3311;48.32423000;14.29074500;2023-04-08T11:14:44;13.00;56.40
6556;DHT22;3311;48.32423000;14.29074500;2023-04-08T11:17:14;13.10;56.20
6556;DHT22;3311;48.32423000;14.29074500;2023-04-08T11:19:42;13.10;56.30
6556;DHT22;3311;48.32423000;14.29074500;2023-04-08T11:22:11;13.00;56.10
6556;DHT22;3311;48.32423000;14.29074500;2023-04-08T11:24:39;13.00;56.50
6556;DHT22;3311;48.32423000;14.29074500;2023-04-08T11:27:06;12.90;56.40
6556;DHT22;3311;48.32423000;14.29074500;2023-04-08T11:29:34;12.90;56.60
6556;DHT22;3311;48.32423000;14.29074500;2023-04-08T11:32:01;12.80;56.80
6556;DHT22;3311;48.32423000;14.29074500;2023-04-08T11:34:30;12.80;56.80
6556;DHT22;3311;48.32423000;14.29074500;2023-04-08T11:36:58;12.70;56.90
6556;DHT22;3311;48.32423000;14.29074500;2023-04-08T11:39:26;12.60;57.00
6556;DHT22;3311;48.32423000;14.29074500;2023-04-08T11:41:54;12.70;56.80
6556;DHT22;3311;48.32423000;14.29074500;2023-04-08T11:44:30;12.60;57.00
6556;DHT22;3311;48.32423000;14.29074500;2023-04-08T11:46:57;12.50;57.70
6556;DHT22;3311;48.32423000;14.29074500;2023-04-08T11:49:27;12.60;57.20
6556;DHT22;3311;48.32423000;14.29074500;2023-04-08T11:51:57;12.60;57.20
6556;DHT22;3311;48.32423000;14.29074500;2023-04-08T11:54:28;12.60;57.20
6556;DHT22;3311;48.32423000;14.29074500;2023-04-08T11:56:57;12.60;57.20
6556;DHT22;3311;48.32423000;14.29074500;2023-04-08T11:59:24;12.60;57.40
6556;DHT22;3311;48.32423000;14.29074500;2023-04-08T12:01:52;12.70;57.00
6556;DHT22;3311;48.32423000;14.29074500;2023-04-08T12:04:19;12.70;57.80
6556;DHT22;3311;48.32423000;14.29074500;2023-04-08T12:06:47;12.70;57.50
6556;DHT22;3311;48.32423000;14.29074500;2023-04-08T12:09:16;12.70;57.20
6556;DHT22;3311;48.32423000;14.29074500;2023-04-08T12:11:43;12.80;57.30
6556;DHT22;3311;48.32423000;14.29074500;2023-04-08T12:14:11;12.80;57.20
6556;DHT22;3311;48.32423000;14.29074500;2023-04-08T12:16:39;12.80;57.10
6556;DHT22;3311;48.32423000;14.29074500;2023-04-08T12:19:06;12.80;57.50
6556;DHT22;3311;48.32423000;14.29074500;2023-04-08T12:21:33;12.70;57.50
6556;DHT22;3311;48.32423000;14.29074500;2023-04-08T12:24:00;12.80;57.60
6556;DHT22;3311;48.32423000;14.29074500;2023-04-08T12:26:29;12.80;57.50
6556;DHT22;3311;48.32423000;14.29074500;2023-04-08T12:28:56;12.90;57.20
6556;DHT22;3311;48.32423000;14.29074500;2023-04-08T12:31:23;12.80;57.20
6556;DHT22;3311;48.32423000;14.29074500;2023-04-08T12:33:52;12.80;57.30
6556;DHT22;3311;48.32423000;14.29074500;2023-04-08T12:36:19;12.80;57.30
6556;DHT22;3311;48.32423000;14.29074500;2023-04-08T12:38:46;12.80;57.20
6556;DHT22;3311;48.32423000;14.29074500;2023-04-08T12:41:14;12.80;57.40
6556;DHT22;3311;48.32423000;14.29074500;2023-04-08T12:43:42;12.80;57.60
6556;DHT22;3311;48.32423000;14.29074500;2023-04-08T12:46:09;12.80;57.90
6556;DHT22;3311;48.32423000;14.29074500;2023-04-08T12:48:38;12.80;57.90
6556;DHT22;3311;48.32423000;14.29074500;2023-04-08T12:51:05;12.70;58.10
6556;DHT22;3311;48.32423000;14.29074500;2023-04-08T12:53:35;12.70;58.00
6556;DHT22;3311;48.32423000;14.29074500;2023-04-08T12:56:02;12.60;58.00
6556;DHT22;3311;48.32423000;14.29074500;2023-04-08T12:58:29;12.60;58.00
6556;DHT22;3311;48.32423000;14.29074500;2023-04-08T13:00:58;12.60;58.10
6556;DHT22;3311;48.32423000;14.29074500;2023-04-08T13:03:25;12.50;58.30
6556;DHT22;3311;48.32423000;14.29074500;2023-04-08T13:05:55;12.50;58.40
6556;DHT22;3311;48.32423000;14.29074500;2023-04-08T13:08:23;12.50;58.80
6556;DHT22;3311;48.32423000;14.29074500;2023-04-08T13:10:51;12.50;58.60
6556;DHT22;3311;48.32423000;14.29074500;2023-04-08T13:13:18;12.50;58.70
6556;DHT22;3311;48.32423000;14.29074500;2023-04-08T13:15:45;12.50;58.60
6556;DHT22;3311;48.32423000;14.29074500;2023-04-08T13:18:14;12.40;59.10
6556;DHT22;3311;48.32423000;14.29074500;2023-04-08T13:20:41;12.40;59.30
6556;DHT22;3311;48.32423000;14.29074500;2023-04-08T13:23:08;12.40;59.00
6556;DHT22;3311;48.32423000;14.29074500;2023-04-08T13:25:35;12.40;59.10
6556;DHT22;3311;48.32423000;14.29074500;2023-04-08T13:28:03;12.40;59.40
6556;DHT22;3311;48.32423000;14.29074500;2023-04-08T13:30:30;12.40;58.30
6556;DHT22;3311;48.32423000;14.29074500;2023-04-08T13:32:57;12.40;58.10
6556;DHT22;3311;48.32423000;14.29074500;2023-04-08T13:35:26;12.50;57.60
6556;DHT22;3311;48.32423000;14.29074500;2023-04-08T13:37:53;12.50;57.50
6556;DHT22;3311;48.32423000;14.29074500;2023-04-08T13:40:20;12.50;57.30
6556;DHT22;3311;48.32423000;14.29074500;2023-04-08T13:42:48;12.50;57.10
6556;DHT22;3311;48.32423000;14.29074500;2023-04-08T13:45:15;12.60;56.80